Time,TemperatureF,DewpointF,PressureIn,WindDirection,WindDirectionDegrees,WindSpeedMPH,WindSpeedGustMPH,Humidity,HourlyPrecipIn,Conditions,Clouds,dailyrainin,SoftwareType,DateUTC
2013-04-11 03:30:00,59.4,54.5,29.97,SW,225,0.9,0.9,84,0.00,,,0.00,WUHU216HW,2013-04-11 07:30:00,
2013-04-11 03:35:00,59.4,54.5,29.97,SW,225,0.9,0.9,84,0.00,,,0.00,WUHU216HW,2013-04-11 07:35:00,
2013-04-11 04:00:00,58.9,54.4,29.98,SW,225,0.7,0.7,85,0.00,,,0.00,WUHU216HW,2013-04-11 08:00:00,
2013-04-11 05:00:00,58.1,54.0,29.98,SW,225,0.0,0.0,86,0.00,,,0.00,WUHU216HW,2013-04-11 09:00:00,
2013-04-11 05:05:00,58.1,54.0,29.98,SW,225,0.0,0.0,86,0.00,,,0.00,WUHU216HW,2013-04-11 09:05:00,
2013-04-11 05:30:00,57.4,53.3,29.98,SSW,203,0.0,0.0,86,0.00,,,0.00,WUHU216HW,2013-04-11 09:30:00,
2013-04-11 05:35:00,57.4,53.3,29.98,SSW,203,0.0,0.0,86,0.00,,,0.00,WUHU216HW,2013-04-11 09:35:00,
2013-04-11 06:00:00,57.2,53.1,29.99,South,180,0.0,0.0,86,0.00,,,0.00,WUHU216HW,2013-04-11 10:00:00,
2013-04-11 06:05:00,57.2,53.1,29.99,South,180,0.0,0.0,86,0.00,,,0.00,WUHU216HW,2013-04-11 10:05:00,
2013-04-11 07:00:00,59.4,55.5,29.99,SSW,203,0.4,0.4,87,0.00,,,0.00,WUHU216HW,2013-04-11 11:00:00,
2013-04-11 07:05:00,59.4,55.5,29.99,SSW,203,0.4,0.4,87,0.00,,,0.00,WUHU216HW,2013-04-11 11:05:00,
2013-04-11 07:30:00,61.0,57.5,30.01,WSW,248,0.2,0.2,88,0.00,,,0.00,WUHU216HW,2013-04-11 11:30:00,
2013-04-11 07:35:00,61.0,57.5,30.01,WSW,248,0.2,0.2,88,0.00,,,0.00,WUHU216HW,2013-04-11 11:35:00,
2013-04-11 08:00:00,62.3,59.0,30.01,SW,225,0.7,0.7,89,0.00,,,0.00,WUHU216HW,2013-04-11 12:00:00,
2013-04-11 08:05:00,62.3,59.0,30.01,SW,225,0.7,0.7,89,0.00,,,0.00,WUHU216HW,2013-04-11 12:05:00,
2013-04-11 08:30:00,63.5,60.3,30.02,SSW,203,2.7,2.7,89,0.00,,,0.00,WUHU216HW,2013-04-11 12:30:00,
2013-04-11 08:35:00,63.5,60.3,30.02,SSW,203,2.7,2.7,89,0.00,,,0.00,WUHU216HW,2013-04-11 12:35:00,
2013-04-11 09:00:00,66.4,63.4,30.02,SW,225,4.0,4.0,90,0.00,,,0.00,WUHU216HW,2013-04-11 13:00:00,
2013-04-11 09:05:00,66.4,63.4,30.02,SW,225,4.0,4.0,90,0.00,,,0.00,WUHU216HW,2013-04-11 13:05:00,
2013-04-11 10:00:00,73.3,66.1,30.01,WSW,248,2.5,2.5,78,0.00,,,0.00,WUHU216HW,2013-04-11 14:00:00,
2013-04-11 10:05:00,73.3,66.1,30.01,WSW,248,2.5,2.5,78,0.00,,,0.00,WUHU216HW,2013-04-11 14:05:00,
2013-04-11 10:30:00,74.5,66.1,30.01,SSE,158,3.1,3.1,75,0.00,,,0.00,WUHU216HW,2013-04-11 14:30:00,
2013-04-11 10:35:00,74.5,66.1,30.01,SSE,158,3.1,3.1,75,0.00,,,0.00,WUHU216HW,2013-04-11 14:35:00,
2013-04-11 11:00:00,76.0,67.1,30.00,WSW,248,2.9,2.9,74,0.00,,,0.00,WUHU216HW,2013-04-11 15:00:00,
2013-04-11 11:05:00,76.0,67.1,30.00,WSW,248,2.9,2.9,74,0.00,,,0.00,WUHU216HW,2013-04-11 15:05:00,
2013-04-11 11:30:00,77.8,65.1,29.99,WSW,248,4.7,4.7,65,0.00,,,0.00,WUHU216HW,2013-04-11 15:30:00,
2013-04-11 12:00:00,78.8,65.2,29.99,SW,225,2.2,2.2,63,0.00,,,0.00,WUHU216HW,2013-04-11 16:00:00,
2013-04-11 12:05:00,78.8,65.2,29.99,SW,225,2.2,2.2,63,0.00,,,0.00,WUHU216HW,2013-04-11 16:05:00,
2013-04-11 12:30:00,77.9,65.3,29.98,SW,225,1.6,1.6,65,0.00,,,0.00,WUHU216HW,2013-04-11 16:30:00,
2013-04-11 12:35:00,77.9,65.3,29.98,SW,225,1.6,1.6,65,0.00,,,0.00,WUHU216HW,2013-04-11 16:35:00,
2013-04-11 15:00:00,85.7,63.1,29.91,WSW,248,9.8,9.8,47,0.00,,,0.00,WUHU216HW,2013-04-11 19:00:00,
2013-04-11 15:05:00,85.9,63.3,29.91,West,270,8.9,9.8,47,0.00,,,0.00,WUHU216HW,2013-04-11 19:05:00,
2013-04-11 15:10:00,85.9,63.3,29.91,West,270,8.9,8.9,47,0.00,,,0.00,WUHU216HW,2013-04-11 19:10:00,
2013-04-11 16:00:00,85.7,63.1,29.88,SE,135,1.3,1.3,47,0.00,,,0.00,WUHU216HW,2013-04-11 20:00:00,
2013-04-11 16:05:00,85.7,63.1,29.88,SSW,203,2.7,2.7,47,0.00,,,0.00,WUHU216HW,2013-04-11 20:05:00,
2013-04-11 17:30:00,86.4,63.2,29.84,South,180,2.0,2.0,46,0.00,,,0.00,WUHU216HW,2013-04-11 21:30:00,
2013-04-11 17:35:00,86.4,63.2,29.84,South,180,2.0,2.0,46,0.00,,,0.00,WUHU216HW,2013-04-11 21:35:00,
2013-04-11 22:30:00,71.8,65.3,29.85,SSE,158,1.8,1.8,80,0.00,,,0.00,WUHU216HW,2013-04-12 02:30:00,
2013-04-11 22:35:00,71.8,65.3,29.85,SSE,158,1.8,1.8,80,0.00,,,0.00,WUHU216HW,2013-04-12 02:35:00,
2013-04-11 22:40:00,71.8,65.3,29.85,SSE,158,1.8,1.8,80,0.00,,,0.00,WUHU216HW,2013-04-12 02:40:00,
2013-04-11 23:00:00,71.6,65.5,29.85,SSE,158,3.1,3.1,81,0.00,,,0.00,WUHU216HW,2013-04-12 03:00:00,
2013-04-11 23:05:00,71.6,65.5,29.85,SSE,158,3.1,3.1,81,0.00,,,0.00,WUHU216HW,2013-04-12 03:05:00,
2013-04-11 23:30:00,71.6,65.9,29.85,South,180,3.1,3.1,82,0.00,,,0.00,WUHU216HW,2013-04-12 03:30:00,
2013-04-11 23:35:00,71.6,65.9,29.85,South,180,3.1,3.1,82,0.00,,,0.00,WUHU216HW,2013-04-12 03:35:00,